Time;durP1;ratioP1;P1;durP2;ratioP2;P2;SDS_P1;SDS_P2;PMS_P1;PMS_P2;Temp;Humidity;BMP_temperature;BMP_pressure;BME280_temperature;BME280_humidity;BME280_pressure;Samples;Min_cycle;Max_cycle;Signal;HPM_P1;HPM_P2
2021/12/21 03:18:24;;;;;;;20.17;4.00;;;22.40;49.80;;;;;;5064835;27;20537;-40
2021/12/21 03:23:12;;;;;;;18.27;4.18;;;22.50;50.00;;;;;;5108014;27;20421;-45
2021/12/21 03:25:38;;;;;;;14.02;3.70;;;22.50;50.00;;;;;;5108124;28;20159;-41
2021/12/21 03:28:04;;;;;;;14.50;4.00;;;22.50;49.90;;;;;;5107829;28;20139;-39
2021/12/21 03:30:31;;;;;;;14.45;3.60;;;22.50;49.80;;;;;;5106724;28;20068;-42
2021/12/21 03:32:57;;;;;;;14.57;3.85;;;22.50;50.00;;;;;;5089741;28;20096;-42
2021/12/21 03:35:23;;;;;;;14.02;3.88;;;22.50;49.50;;;;;;5107206;28;20076;-40
2021/12/21 03:37:50;;;;;;;16.35;4.13;;;22.50;49.30;;;;;;5107715;28;20742;-39
2021/12/21 03:40:16;;;;;;;17.00;3.72;;;22.60;49.60;;;;;;5088592;28;20088;-40
2021/12/21 03:42:43;;;;;;;12.45;3.33;;;22.50;49.50;;;;;;5090085;28;20084;-44
2021/12/21 03:45:09;;;;;;;12.43;3.40;;;22.50;49.10;;;;;;5107261;28;20270;-41
2021/12/21 03:47:36;;;;;;;11.20;3.20;;;22.50;49.20;;;;;;5124054;28;20087;-39
2021/12/21 03:50:04;;;;;;;12.30;3.47;;;22.50;49.40;;;;;;5113902;27;20084;-43
2021/12/21 03:52:30;;;;;;;9.23;3.28;;;22.50;49.60;;;;;;5104972;28;20113;-40
2021/12/21 03:55:01;;;;;;;14.05;3.00;;;22.50;49.20;;;;;;5089502;28;20080;-46
2021/12/21 03:57:29;;;;;;;20.85;3.58;;;22.50;49.10;;;;;;5072803;28;20472;-44
2021/12/21 03:59:56;;;;;;;17.08;3.30;;;22.50;49.20;;;;;;5105967;28;20072;-48
2021/12/21 04:02:25;;;;;;;16.25;3.10;;;22.50;48.90;;;;;;5105705;28;20183;-40
2021/12/21 04:04:54;;;;;;;13.50;3.40;;;22.50;48.90;;;;;;5089700;28;20151;-38
2021/12/21 04:07:20;;;;;;;10.65;3.28;;;22.50;48.90;;;;;;5106529;28;20072;-38
2021/12/21 04:09:48;;;;;;;9.82;3.80;;;22.50;48.80;;;;;;5089411;28;20137;-44
2021/12/21 04:12:15;;;;;;;13.40;3.47;;;22.60;48.80;;;;;;5107743;28;20080;-39
2021/12/21 04:14:42;;;;;;;12.25;3.28;;;22.50;48.70;;;;;;5106478;28;20073;-39
2021/12/21 04:17:16;;;;;;;10.70;3.60;;;22.50;48.60;;;;;;5089796;28;20553;-43
2021/12/21 04:19:42;;;;;;;9.80;3.20;;;22.50;48.50;;;;;;5091297;28;20087;-40
2021/12/21 04:22:09;;;;;;;11.70;2.92;;;22.60;48.50;;;;;;5106505;28;20104;-41
2021/12/21 04:24:35;;;;;;;10.07;3.03;;;22.60;48.50;;;;;;5106242;28;20518;-38
2021/12/21 04:27:02;;;;;;;16.55;2.88;;;22.50;48.70;;;;;;5105323;28;20075;-39
2021/12/21 04:29:28;;;;;;;13.75;3.28;;;22.50;48.80;;;;;;5122507;28;20080;-45
2021/12/21 04:31:54;;;;;;;11.77;3.05;;;22.50;48.30;;;;;;5112450;28;20551;-44
2021/12/21 04:34:21;;;;;;;10.48;2.90;;;22.50;48.20;;;;;;5092234;28;20440;-42
2021/12/21 04:36:47;;;;;;;7.88;3.17;;;22.50;48.00;;;;;;5074655;28;20617;-40
2021/12/21 04:41:58;;;;;;;11.10;3.13;;;22.40;48.00;;;;;;5093733;28;20126;-45
2021/12/21 04:44:24;;;;;;;12.88;3.53;;;22.40;48.70;;;;;;5091778;28;20080;-36
2021/12/21 04:46:51;;;;;;;30.42;7.82;;;22.40;48.10;;;;;;5103883;28;20419;-36
2021/12/21 04:49:17;;;;;;;55.55;13.82;;;22.40;47.90;;;;;;5094728;28;20092;-37
2021/12/21 04:51:44;;;;;;;54.10;15.40;;;22.40;47.80;;;;;;5091408;28;20163;-40
2021/12/21 04:54:10;;;;;;;61.35;17.63;;;22.30;47.70;;;;;;5090987;28;20092;-40
2021/12/21 04:56:38;;;;;;;65.38;17.88;;;22.30;47.90;;;;;;5090927;28;20614;-44
2021/12/21 04:59:04;;;;;;;64.78;17.50;;;22.30;47.60;;;;;;5075288;28;20142;-38
2021/12/21 05:01:31;;;;;;;72.18;19.48;;;22.30;47.60;;;;;;5090770;28;20487;-38
2021/12/21 05:03:57;;;;;;;74.85;19.10;;;22.30;47.80;;;;;;5093302;28;20523;-38
2021/12/21 05:06:23;;;;;;;72.05;19.45;;;22.30;47.70;;;;;;5073999;28;20537;-38
2021/12/21 05:09:07;;;;;;;75.00;20.45;;;22.20;47.80;;;;;;5091858;28;20504;-38
2021/12/21 05:11:35;;;;;;;61.60;18.55;;;22.20;47.70;;;;;;5090545;28;20077;-40
2021/12/21 05:14:06;;;;;;;68.30;19.08;;;22.20;47.80;;;;;;5090764;28;20077;-39
2021/12/21 05:16:33;;;;;;;62.88;17.13;;;22.20;47.90;;;;;;5089461;28;20175;-38
2021/12/21 05:18:59;;;;;;;61.50;19.48;;;22.30;47.80;;;;;;5091877;28;20068;-38
2021/12/21 05:21:25;;;;;;;62.13;19.23;;;22.20;48.00;;;;;;5094263;28;20104;-42
2021/12/21 05:23:52;;;;;;;61.72;18.23;;;22.20;48.00;;;;;;5090498;28;20069;-43
2021/12/21 05:26:18;;;;;;;67.38;17.55;;;22.20;48.00;;;;;;5108818;28;20087;-39
2021/12/21 05:28:44;;;;;;;59.30;19.40;;;22.20;48.30;;;;;;5102956;28;20068;-44
2021/12/21 05:31:11;;;;;;;57.75;16.77;;;22.20;48.60;;;;;;5100626;28;20107;-40
2021/12/21 05:33:37;;;;;;;63.15;17.75;;;22.20;48.50;;;;;;5079891;28;20587;-40
2021/12/21 05:36:04;;;;;;;57.60;16.75;;;22.20;48.40;;;;;;5074438;28;20081;-41
2021/12/21 05:38:33;;;;;;;52.28;15.38;;;22.20;48.50;;;;;;5089326;28;20557;-40
2021/12/21 05:41:03;;;;;;;52.35;15.18;;;22.20;48.50;;;;;;5073977;28;20557;-43
2021/12/21 05:43:30;;;;;;;48.60;16.88;;;22.20;48.70;;;;;;5091874;28;20081;-37
2021/12/21 05:45:56;;;;;;;52.58;15.50;;;22.20;48.80;;;;;;5076940;28;20096;-42
2021/12/21 05:48:23;;;;;;;49.58;15.43;;;22.10;48.80;;;;;;5074047;28;20526;-40
2021/12/21 05:50:49;;;;;;;51.90;14.32;;;22.20;48.90;;;;;;5091965;28;20093;-38
2021/12/21 05:53:16;;;;;;;45.97;14.52;;;22.20;49.00;;;;;;5074335;28;20069;-38
2021/12/21 05:55:42;;;;;;;46.55;14.13;;;22.20;49.10;;;;;;5090614;28;20152;-42
2021/12/21 05:58:09;;;;;;;42.47;14.63;;;22.20;49.20;;;;;;5089928;28;20487;-42
2021/12/21 06:00:36;;;;;;;46.30;13.93;;;22.20;49.30;;;;;;5089516;28;20675;-41
2021/12/21 06:03:02;;;;;;;41.60;13.07;;;22.20;49.30;;;;;;5070912;28;20093;-41
2021/12/21 06:05:29;;;;;;;48.05;13.07;;;22.10;49.50;;;;;;5073415;28;20159;-41
2021/12/21 06:07:56;;;;;;;47.55;13.82;;;22.10;49.70;;;;;;5073159;28;20429;-44
2021/12/21 06:10:31;;;;;;;44.05;13.00;;;22.20;49.70;;;;;;5089836;28;20163;-38
2021/12/21 06:26:31;;;;;;;34.53;11.13;;;22.20;50.80;;;;;;5090563;28;20081;-41
2021/12/21 06:28:58;;;;;;;38.10;12.30;;;22.20;51.00;;;;;;5089079;28;20084;-40
2021/12/21 06:31:25;;;;;;;45.55;13.80;;;22.20;51.20;;;;;;5091424;28;20163;-39
2021/12/21 06:33:51;;;;;;;40.13;13.80;;;22.20;51.20;;;;;;5090205;28;20131;-42
2021/12/21 06:36:18;;;;;;;44.15;14.93;;;22.20;51.10;;;;;;5089509;28;20084;-44
2021/12/21 06:38:45;;;;;;;44.55;14.68;;;22.20;51.90;;;;;;5088864;28;20076;-40
2021/12/21 06:41:11;;;;;;;42.67;14.27;;;22.20;51.10;;;;;;5071548;28;20096;-44
2021/12/21 06:43:38;;;;;;;45.50;14.60;;;22.30;51.30;;;;;;5072136;28;20522;-39
2021/12/21 06:51:21;;;;;;;34.92;14.23;;;22.30;50.80;;;;;;5089523;28;20140;-40
2021/12/21 06:53:50;;;;;;;49.70;14.75;;;22.30;50.60;;;;;;5072752;28;20390;-39
2021/12/21 06:56:18;;;;;;;37.63;15.10;;;22.40;50.60;;;;;;5088370;28;20123;-40
2021/12/21 06:58:45;;;;;;;36.55;13.10;;;22.40;50.40;;;;;;5089715;28;20068;-40
2021/12/21 07:01:13;;;;;;;44.53;14.70;;;22.40;50.30;;;;;;5090100;28;20088;-42
2021/12/21 07:03:41;;;;;;;41.40;14.82;;;22.40;50.20;;;;;;5089634;28;20069;-39
2021/12/21 07:06:08;;;;;;;48.60;16.35;;;22.40;50.20;;;;;;5088020;28;20164;-44
2021/12/21 07:11:45;;;;;;;43.13;14.05;;;22.40;50.40;;;;;;5047708;28;20587;-48
2021/12/21 07:19:44;;;;;;;35.05;13.38;;;22.40;50.10;;;;;;5046682;28;20654;-45
2021/12/21 07:22:11;;;;;;;40.63;13.85;;;22.40;49.70;;;;;;5030992;28;20163;-42
2021/12/21 07:24:38;;;;;;;36.65;13.35;;;22.50;49.80;;;;;;5030918;28;20117;-39
2021/12/21 07:27:05;;;;;;;36.05;13.60;;;22.50;49.40;;;;;;5030857;28;20081;-37
2021/12/21 07:29:31;;;;;;;38.25;13.77;;;22.50;49.30;;;;;;5031327;28;20124;-41
2021/12/21 07:31:57;;;;;;;42.08;13.75;;;22.50;49.20;;;;;;5042740;28;20489;-45
2021/12/21 07:34:24;;;;;;;31.10;12.57;;;22.50;49.10;;;;;;5033116;28;20104;-39
2021/12/21 07:36:50;;;;;;;36.53;13.35;;;22.40;49.30;;;;;;5047181;28;20111;-40
2021/12/21 07:39:18;;;;;;;34.72;12.32;;;22.40;48.90;;;;;;5030759;28;20180;-39
2021/12/21 07:41:45;;;;;;;43.65;15.20;;;22.40;48.80;;;;;;5039962;28;20101;-40
2021/12/21 07:44:13;;;;;;;38.42;13.23;;;22.40;48.50;;;;;;5089555;28;20089;-42
2021/12/21 07:46:40;;;;;;;40.70;13.45;;;22.30;48.50;;;;;;5087258;28;20073;-45
2021/12/21 07:49:07;;;;;;;34.60;13.30;;;22.30;48.30;;;;;;5087861;28;20085;-42
2021/12/21 07:51:33;;;;;;;31.13;12.93;;;22.30;48.50;;;;;;5088033;28;20092;-44
2021/12/21 07:54:00;;;;;;;45.65;13.38;;;22.30;48.70;;;;;;5054139;28;20215;-40
2021/12/21 07:56:26;;;;;;;38.22;13.50;;;22.30;46.90;;;;;;5087325;28;20533;-43
2021/12/21 07:58:53;;;;;;;36.13;12.52;;;22.20;46.00;;;;;;5070992;28;20446;-43
2021/12/21 08:01:19;;;;;;;37.42;13.13;;;22.20;45.90;;;;;;5087571;28;20088;-40
2021/12/21 08:03:46;;;;;;;47.78;12.98;;;22.20;46.40;;;;;;5067839;28;20114;-39
2021/12/21 08:06:14;;;;;;;43.80;12.80;;;22.20;45.60;;;;;;5069935;28;20150;-38
2021/12/21 08:08:43;;;;;;;31.67;12.20;;;22.10;45.50;;;;;;5072435;28;20072;-38
2021/12/21 08:11:15;;;;;;;40.00;13.07;;;22.10;45.40;;;;;;5090730;28;20079;-38
2021/12/21 08:13:49;;;;;;;41.05;13.27;;;22.10;45.40;;;;;;5089331;28;20069;-38
2021/12/21 08:16:15;;;;;;;40.17;13.43;;;22.10;45.30;;;;;;5090283;28;20100;-44
2021/12/21 08:18:42;;;;;;;41.42;12.82;;;22.10;45.10;;;;;;5075079;28;20077;-40
2021/12/21 08:21:08;;;;;;;38.58;12.38;;;22.00;45.00;;;;;;5088812;28;20474;-41
2021/12/21 08:23:35;;;;;;;40.47;12.05;;;22.00;44.90;;;;;;5074824;28;20069;-38
2021/12/21 08:26:01;;;;;;;32.97;12.30;;;22.00;44.80;;;;;;5092655;28;20076;-38
2021/12/21 08:28:28;;;;;;;29.98;11.38;;;22.00;45.30;;;;;;5074877;28;20129;-52
2021/12/21 08:30:54;;;;;;;42.72;11.98;;;22.00;45.20;;;;;;5074076;28;20484;-37
2021/12/21 08:33:21;;;;;;;32.20;11.63;;;22.00;45.20;;;;;;5091265;28;20068;-40
2021/12/21 08:35:47;;;;;;;35.47;12.27;;;21.90;45.30;;;;;;5073855;28;20213;-38
2021/12/21 08:38:16;;;;;;;39.13;12.73;;;21.90;44.90;;;;;;5090089;28;20069;-39
2021/12/21 08:40:47;;;;;;;37.08;11.40;;;21.90;45.20;;;;;;5091226;28;20080;-38
2021/12/21 08:43:19;;;;;;;37.88;12.00;;;21.90;45.20;;;;;;5074205;28;20454;-44
2021/12/21 08:45:49;;;;;;;29.33;10.60;;;21.90;45.10;;;;;;5074179;28;20583;-38
2021/12/21 08:48:16;;;;;;;32.95;12.38;;;21.90;45.20;;;;;;5089974;28;20137;-39
2021/12/21 08:50:44;;;;;;;25.63;11.02;;;21.90;45.20;;;;;;5091364;28;20084;-41
2021/12/21 08:53:12;;;;;;;33.50;11.50;;;21.90;45.60;;;;;;5090296;28;20084;-41
2021/12/21 08:55:40;;;;;;;35.40;11.50;;;21.90;45.10;;;;;;5090506;28;20076;-41
2021/12/21 08:58:07;;;;;;;30.67;11.75;;;21.90;45.50;;;;;;5090471;28;20377;-42
2021/12/21 09:00:34;;;;;;;23.88;11.30;;;21.90;45.40;;;;;;5090191;28;20087;-38
2021/12/21 09:03:01;;;;;;;35.95;11.38;;;21.80;45.00;;;;;;5089471;28;20530;-38
2021/12/21 09:05:31;;;;;;;32.75;11.55;;;21.80;45.10;;;;;;5074030;28;20530;-38
2021/12/21 09:07:58;;;;;;;27.23;10.27;;;21.90;44.90;;;;;;5090228;28;20080;-42
2021/12/21 09:10:25;;;;;;;31.83;10.95;;;21.80;45.20;;;;;;5090529;28;20117;-45
2021/12/21 09:12:52;;;;;;;25.67;10.70;;;21.80;45.20;;;;;;5073173;28;20847;-47
2021/12/21 09:15:20;;;;;;;36.30;11.68;;;21.80;45.20;;;;;;5089547;28;20079;-44
2021/12/21 09:17:47;;;;;;;27.27;10.10;;;21.80;45.40;;;;;;5092027;28;20080;-40
2021/12/21 09:20:17;;;;;;;35.20;10.70;;;21.80;44.80;;;;;;5090106;28;20106;-39
2021/12/21 09:22:44;;;;;;;29.58;10.90;;;21.80;44.80;;;;;;5092470;28;20116;-38
2021/12/21 09:25:11;;;;;;;26.90;10.60;;;21.80;45.00;;;;;;5088912;28;20069;-40
2021/12/21 09:27:38;;;;;;;30.23;10.93;;;21.80;45.00;;;;;;5056789;28;20558;-43
2021/12/21 09:30:07;;;;;;;23.10;10.20;;;21.80;44.60;;;;;;5090407;28;20078;-41
2021/12/21 09:32:33;;;;;;;27.60;10.13;;;21.80;44.80;;;;;;5072979;28;20091;-39
2021/12/21 09:35:00;;;;;;;28.50;9.60;;;21.80;44.60;;;;;;5091104;28;20080;-44
2021/12/21 09:37:27;;;;;;;33.25;10.48;;;21.70;44.50;;;;;;5073165;28;20079;-38
2021/12/21 09:39:55;;;;;;;35.33;11.30;;;21.80;44.60;;;;;;5088653;28;20092;-40
2021/12/21 09:42:27;;;;;;;26.92;10.48;;;21.70;44.80;;;;;;5056560;28;20096;-43
2021/12/21 09:44:54;;;;;;;30.17;10.20;;;21.70;44.70;;;;;;5073205;28;20069;-40
2021/12/21 09:47:21;;;;;;;27.95;10.10;;;21.70;44.60;;;;;;5090637;28;20072;-42
2021/12/21 09:49:49;;;;;;;26.70;9.10;;;21.70;44.70;;;;;;5089080;28;20145;-42
2021/12/21 09:52:20;;;;;;;33.45;10.32;;;21.70;44.50;;;;;;5090380;28;20115;-40
2021/12/21 09:54:47;;;;;;;23.48;9.70;;;21.70;44.30;;;;;;5072809;28;20073;-52
2021/12/21 09:57:16;;;;;;;30.88;9.77;;;21.70;44.40;;;;;;5089439;28;20093;-38
2021/12/21 09:59:47;;;;;;;23.38;8.82;;;21.70;44.30;;;;;;5090027;28;20167;-40
2021/12/21 10:02:18;;;;;;;21.55;9.50;;;21.70;44.60;;;;;;5088018;28;20088;-38
2021/12/21 10:04:50;;;;;;;18.92;8.52;;;21.70;44.20;;;;;;5088594;28;20100;-42
2021/12/21 10:07:18;;;;;;;23.75;8.63;;;21.70;44.20;;;;;;5072036;28;20163;-39
2021/12/21 10:09:47;;;;;;;24.30;8.35;;;21.70;44.60;;;;;;5089372;28;20072;-40
2021/12/21 10:12:25;;;;;;;24.02;9.05;;;21.70;44.70;;;;;;5071865;28;20104;-40
2021/12/21 10:15:17;;;;;;;20.27;9.10;;;21.70;44.70;;;;;;5073598;28;20522;-38
2021/12/21 10:17:54;;;;;;;18.60;8.50;;;21.70;44.70;;;;;;5074181;28;20488;-40
2021/12/21 10:20:37;;;;;;;20.33;8.25;;;21.70;44.50;;;;;;5088851;28;20080;-40
2021/12/21 10:23:23;;;;;;;17.00;7.82;;;21.70;44.40;;;;;;5088901;28;20188;-42
2021/12/21 10:25:57;;;;;;;18.25;7.97;;;21.70;44.50;;;;;;5072183;28;20426;-39
2021/12/21 10:28:41;;;;;;;20.60;7.95;;;21.70;44.60;;;;;;5073019;28;20159;-38
2021/12/21 10:31:29;;;;;;;19.98;8.07;;;21.70;44.50;;;;;;5087417;28;20086;-39
2021/12/21 10:33:58;;;;;;;18.90;7.47;;;21.70;44.50;;;;;;5069982;28;20068;-39
2021/12/21 10:36:26;;;;;;;19.02;8.23;;;21.70;44.30;;;;;;5075491;28;20135;-41
2021/12/21 10:39:03;;;;;;;15.75;7.25;;;21.70;44.20;;;;;;5071464;28;20230;-49
2021/12/21 10:41:39;;;;;;;;;;;21.70;43.90;;;;;;5088191;28;20085;-42
2021/12/21 10:44:08;;;;;;;15.57;7.05;;;21.70;44.00;;;;;;5089350;28;20018;-37
2021/12/21 10:46:37;;;;;;;12.73;6.25;;;21.70;44.20;;;;;;5090193;28;20778;-44
2021/12/21 10:49:12;;;;;;;13.38;6.32;;;21.60;44.00;;;;;;5091037;28;20076;-38
2021/12/21 10:51:58;;;;;;;23.67;7.22;;;21.70;44.10;;;;;;5088261;28;20089;-39
2021/12/21 10:54:44;;;;;;;15.55;6.45;;;21.70;43.80;;;;;;5089558;28;20167;-43
2021/12/21 10:57:21;;;;;;;16.67;7.00;;;21.60;43.70;;;;;;5071857;28;20191;-39
2021/12/21 10:59:50;;;;;;;13.82;6.05;;;21.60;44.20;;;;;;5090639;28;20519;-39
2021/12/21 11:02:28;;;;;;;11.50;5.53;;;21.60;43.20;;;;;;5089675;28;20130;-38
2021/12/21 11:05:01;;;;;;;16.33;6.60;;;21.60;43.50;;;;;;5072540;28;20497;-38
2021/12/21 11:10:15;;;;;;;18.77;5.95;;;21.60;43.10;;;;;;5087622;28;20068;-38
2021/12/21 11:12:56;;;;;;;14.20;6.15;;;21.60;43.00;;;;;;5087720;28;20549;-42
2021/12/21 11:15:32;;;;;;;13.38;7.40;;;21.60;42.80;;;;;;5089038;28;20099;-44
2021/12/21 11:18:10;;;;;;;15.52;7.85;;;21.60;42.90;;;;;;5088230;28;20072;-39
2021/12/21 11:20:40;;;;;;;11.48;6.53;;;21.60;42.60;;;;;;5086178;28;20076;-38
2021/12/21 11:23:07;;;;;;;13.45;6.30;;;21.60;42.70;;;;;;5056210;28;20482;-38
2021/12/21 11:25:35;;;;;;;15.70;6.40;;;21.60;42.70;;;;;;5068398;28;20070;-42
2021/12/21 11:28:03;;;;;;;10.30;6.03;;;21.60;42.60;;;;;;5088108;28;20126;-40
2021/12/21 11:30:31;;;;;;;13.75;6.43;;;21.60;42.20;;;;;;5088857;28;20475;-42
2021/12/21 11:33:00;;;;;;;10.32;5.68;;;21.60;42.10;;;;;;5088477;28;20108;-43
2021/12/21 11:38:05;;;;;;;15.68;5.53;;;21.60;42.10;;;;;;5086798;28;20529;-38
2021/12/21 11:40:36;;;;;;;12.10;5.00;;;21.60;42.10;;;;;;5054540;28;20167;-42
2021/12/21 11:43:12;;;;;;;11.77;5.28;;;21.60;42.00;;;;;;5089734;28;20085;-39
2021/12/21 11:46:05;;;;;;;14.52;5.30;;;21.60;42.00;;;;;;5073592;28;20157;-39
2021/12/21 11:48:53;;;;;;;12.18;4.75;;;21.60;42.20;;;;;;5092042;28;20085;-38
2021/12/21 11:51:24;;;;;;;8.65;5.00;;;21.60;41.70;;;;;;5076374;28;20098;-40
2021/12/21 11:53:50;;;;;;;12.00;4.93;;;21.60;41.80;;;;;;5092170;28;20080;-42
2021/12/21 11:56:20;;;;;;;10.32;4.97;;;21.50;41.90;;;;;;5092721;28;20092;-38
2021/12/21 11:58:50;;;;;;;16.50;5.50;;;21.50;42.00;;;;;;5093539;28;20081;-41
2021/12/21 12:01:26;;;;;;;14.75;5.30;;;21.50;41.80;;;;;;5092411;28;20126;-40
2021/12/21 12:04:09;;;;;;;15.52;5.43;;;21.50;41.40;;;;;;5076422;28;20434;-43
2021/12/21 12:06:57;;;;;;;10.48;5.25;;;21.50;41.50;;;;;;5074811;28;20145;-41
2021/12/21 12:09:32;;;;;;;14.05;4.70;;;21.50;41.80;;;;;;5074541;28;20072;-40
2021/12/21 12:12:16;;;;;;;10.57;5.00;;;21.50;41.80;;;;;;5090933;28;20128;-39
2021/12/21 12:14:46;;;;;;;14.57;5.30;;;21.50;41.60;;;;;;5089897;28;20531;-38
2021/12/21 12:17:22;;;;;;;12.20;4.97;;;21.50;41.70;;;;;;5089655;28;20184;-39
2021/12/21 12:20:01;;;;;;;9.82;4.63;;;21.50;41.50;;;;;;5091706;28;20076;-38
2021/12/21 12:22:37;;;;;;;15.40;4.85;;;21.50;41.60;;;;;;5075565;28;20578;-40
2021/12/21 12:25:06;;;;;;;11.60;4.90;;;21.50;41.40;;;;;;5092475;28;20100;-51
2021/12/21 12:27:41;;;;;;;11.05;4.75;;;21.50;41.10;;;;;;5091282;28;20505;-39
2021/12/21 12:30:09;;;;;;;9.73;4.45;;;21.50;41.00;;;;;;5075809;28;20065;-36
2021/12/21 12:32:42;;;;;;;12.10;4.32;;;21.50;41.20;;;;;;5093622;28;20119;-33
2021/12/21 12:35:14;;;;;;;10.88;4.63;;;21.50;40.80;;;;;;5091112;28;20581;-45
2021/12/21 12:38:00;;;;;;;9.90;4.72;;;21.50;40.70;;;;;;5091329;28;20089;-38
2021/12/21 12:40:36;;;;;;;9.73;4.43;;;21.50;40.50;;;;;;5091080;28;20167;-31
2021/12/21 12:43:11;;;;;;;8.95;4.68;;;21.50;40.50;;;;;;5093973;28;20145;-36
2021/12/21 12:46:09;;;;;;;13.30;5.07;;;21.50;40.70;;;;;;5089982;28;20437;-37
2021/12/21 12:48:47;;;;;;;13.23;5.65;;;21.40;40.50;;;;;;5030080;28;20085;-41
2021/12/21 12:51:41;;;;;;;9.00;4.47;;;21.40;40.50;;;;;;5046582;28;20089;-40
2021/12/21 12:54:25;;;;;;;10.88;4.57;;;21.40;40.50;;;;;;5001275;28;20082;-35
2021/12/21 12:56:52;;;;;;;12.05;4.38;;;21.40;40.30;;;;;;5029571;28;20081;-38
2021/12/21 12:59:18;;;;;;;13.07;5.25;;;21.40;40.50;;;;;;5030433;28;20108;-41
2021/12/21 13:01:47;;;;;;;12.73;5.03;;;21.30;40.30;;;;;;5014587;28;20093;-36
2021/12/21 13:04:15;;;;;;;12.40;4.22;;;21.30;40.10;;;;;;5028875;28;20165;-36
2021/12/21 13:06:46;;;;;;;11.32;5.47;;;21.30;40.30;;;;;;5031451;28;20077;-43
2021/12/21 13:09:15;;;;;;;10.82;5.05;;;21.30;40.20;;;;;;5031895;28;20572;-45
2021/12/21 13:11:42;;;;;;;15.27;5.00;;;21.30;40.20;;;;;;5047111;28;20104;-37
2021/12/21 13:14:14;;;;;;;13.20;5.35;;;21.20;39.80;;;;;;5030065;28;20656;-47
2021/12/21 13:16:42;;;;;;;12.02;5.38;;;21.20;40.00;;;;;;5033501;28;20101;-42
2021/12/21 13:19:12;;;;;;;12.55;5.20;;;21.20;40.00;;;;;;5031104;28;20088;-38
2021/12/21 13:21:47;;;;;;;12.38;5.28;;;21.20;39.80;;;;;;5031765;28;20117;-39
2021/12/21 13:24:19;;;;;;;12.45;5.38;;;21.20;39.90;;;;;;5026923;28;20092;-40
2021/12/21 13:26:57;;;;;;;12.20;5.93;;;21.20;39.90;;;;;;5090223;28;20166;-34
2021/12/21 13:29:26;;;;;;;10.65;6.18;;;21.20;40.00;;;;;;5071724;28;20065;-43
2021/12/21 13:31:56;;;;;;;12.30;5.93;;;21.20;40.00;;;;;;5090059;28;20123;-34
2021/12/21 13:34:24;;;;;;;12.65;5.63;;;21.10;39.90;;;;;;5090159;28;20155;-39
2021/12/21 13:36:55;;;;;;;12.10;5.80;;;21.10;40.00;;;;;;5073669;28;20076;-49
2021/12/21 13:39:33;;;;;;;16.23;5.28;;;21.10;40.10;;;;;;5091339;28;20076;-43
2021/12/21 13:42:05;;;;;;;10.65;5.47;;;21.10;40.20;;;;;;5090182;28;20084;-45
2021/12/21 13:44:34;;;;;;;13.20;5.80;;;21.10;40.10;;;;;;5089970;28;20073;-36
2021/12/21 13:47:04;;;;;;;11.70;5.90;;;21.10;40.00;;;;;;5073795;28;20098;-38
2021/12/21 13:49:31;;;;;;;16.90;5.70;;;21.10;40.20;;;;;;5073693;28;20088;-39
2021/12/21 13:51:59;;;;;;;14.88;6.35;;;21.10;40.20;;;;;;5091095;28;20084;-38
2021/12/21 13:54:27;;;;;;;15.02;5.82;;;21.00;40.10;;;;;;5076351;28;20419;-35
2021/12/21 13:56:54;;;;;;;17.17;6.10;;;21.00;39.90;;;;;;5073189;28;20072;-37
2021/12/21 13:59:22;;;;;;;12.02;6.18;;;21.00;40.00;;;;;;5073632;28;20081;-40
2021/12/21 14:01:55;;;;;;;9.95;5.95;;;21.00;40.00;;;;;;5090416;28;20088;-34
2021/12/21 14:04:26;;;;;;;13.38;6.00;;;21.00;40.00;;;;;;5091725;28;20155;-40
2021/12/21 14:06:54;;;;;;;12.82;6.28;;;21.00;40.00;;;;;;5073081;28;20145;-43
2021/12/21 14:09:22;;;;;;;17.58;6.35;;;21.00;39.90;;;;;;5089852;28;20069;-36
2021/12/21 14:11:54;;;;;;;14.93;6.50;;;21.00;40.10;;;;;;5089538;28;20441;-38
2021/12/21 14:14:21;;;;;;;15.80;6.10;;;21.00;40.10;;;;;;5071936;28;20080;-40
2021/12/21 14:16:50;;;;;;;14.85;6.03;;;21.00;40.10;;;;;;5088950;28;20092;-33
2021/12/21 14:19:24;;;;;;;15.30;6.20;;;21.00;40.20;;;;;;5073551;28;20093;-39
2021/12/21 14:21:57;;;;;;;17.88;6.63;;;20.90;40.30;;;;;;5089016;28;20118;-41
2021/12/21 14:24:31;;;;;;;17.00;7.70;;;20.90;40.00;;;;;;5090669;28;20091;-39
2021/12/21 14:27:08;;;;;;;12.18;6.68;;;20.90;40.10;;;;;;5089536;28;20077;-36
2021/12/21 14:29:36;;;;;;;17.42;6.57;;;20.90;40.20;;;;;;5087416;28;20126;-44
2021/12/21 14:34:40;;;;;;;14.20;5.72;;;20.90;40.40;;;;;;5089760;28;20553;-39
2021/12/21 14:37:10;;;;;;;18.35;7.75;;;20.90;40.40;;;;;;5089287;28;20089;-43
2021/12/21 14:39:37;;;;;;;15.05;7.28;;;20.90;40.50;;;;;;5072524;28;20126;-41
2021/12/21 14:42:08;;;;;;;18.00;6.75;;;20.90;40.50;;;;;;5089443;28;20153;-40
2021/12/21 14:44:51;;;;;;;15.23;7.05;;;20.90;40.40;;;;;;5088319;28;20101;-44
2021/12/21 14:47:36;;;;;;;19.98;7.30;;;20.90;40.40;;;;;;5073521;28;20518;-37
2021/12/21 14:50:10;;;;;;;16.42;7.78;;;20.90;40.40;;;;;;5089197;28;20110;-32
2021/12/21 14:52:42;;;;;;;13.07;6.72;;;20.80;40.40;;;;;;5071643;28;20072;-50
2021/12/21 14:55:23;;;;;;;14.85;7.78;;;20.90;41.20;;;;;;5089160;28;20076;-38
2021/12/21 14:57:59;;;;;;;18.73;7.20;;;20.90;41.80;;;;;;5089606;28;20077;-39
2021/12/21 15:00:35;;;;;;;11.82;6.45;;;20.90;41.70;;;;;;5087544;28;20072;-37
2021/12/21 15:03:07;;;;;;;15.20;6.57;;;20.90;42.00;;;;;;5091731;28;20092;-45
2021/12/21 15:05:36;;;;;;;12.75;6.50;;;20.90;42.30;;;;;;5089389;28;20084;-43
2021/12/21 15:08:05;;;;;;;18.33;6.90;;;20.90;42.50;;;;;;5089339;28;20072;-44
2021/12/21 15:10:34;;;;;;;19.58;6.57;;;20.90;42.70;;;;;;5089289;28;20078;-42
2021/12/21 15:13:03;;;;;;;20.45;7.05;;;20.90;43.20;;;;;;5073098;28;20087;-40
2021/12/21 15:15:30;;;;;;;16.88;6.03;;;20.90;43.10;;;;;;5090750;28;20460;-39
2021/12/21 15:17:57;;;;;;;14.63;6.28;;;21.00;43.90;;;;;;5089382;28;20083;-42
2021/12/21 15:20:25;;;;;;;17.80;6.85;;;21.00;43.60;;;;;;5089481;28;20111;-41
2021/12/21 15:22:52;;;;;;;16.40;6.57;;;21.00;43.60;;;;;;5073074;28;20112;-41
2021/12/21 15:25:20;;;;;;;15.00;7.00;;;21.10;43.50;;;;;;5089746;28;20076;-42
2021/12/21 15:27:47;;;;;;;18.38;7.03;;;21.20;43.50;;;;;;5089538;28;20523;-46
2021/12/21 15:30:15;;;;;;;17.05;7.30;;;21.20;43.40;;;;;;5090032;28;20172;-44
2021/12/21 15:32:43;;;;;;;18.40;6.78;;;21.20;43.40;;;;;;5089880;28;20088;-43
2021/12/21 15:35:10;;;;;;;18.35;7.57;;;21.30;43.40;;;;;;5088909;28;20080;-44
2021/12/21 15:37:36;;;;;;;22.42;7.50;;;21.30;43.40;;;;;;5089873;28;20077;-43
2021/12/21 15:40:06;;;;;;;15.60;7.22;;;21.30;43.40;;;;;;5087848;28;20177;-44
2021/12/21 15:42:34;;;;;;;23.65;8.23;;;21.40;43.40;;;;;;5089001;28;20305;-47
2021/12/21 15:45:01;;;;;;;17.85;7.47;;;21.30;43.00;;;;;;5087642;28;20080;-39
2021/12/21 15:47:29;;;;;;;18.15;7.45;;;21.30;43.20;;;;;;5105425;28;20091;-39
2021/12/21 15:49:56;;;;;;;25.27;8.05;;;21.30;43.00;;;;;;5094147;28;20504;-41
2021/12/21 15:52:25;;;;;;;18.02;8.15;;;21.30;43.00;;;;;;5087935;28;20095;-45
2021/12/21 15:54:52;;;;;;;16.88;6.95;;;21.30;43.00;;;;;;5087689;28;20077;-38
2021/12/21 15:57:19;;;;;;;16.33;7.47;;;21.40;43.20;;;;;;5085369;28;20081;-41
2021/12/21 15:59:46;;;;;;;25.85;7.97;;;21.40;43.00;;;;;;5088764;28;20120;-39
2021/12/21 16:02:18;;;;;;;28.42;9.10;;;21.40;43.10;;;;;;5088144;28;20088;-41
2021/12/21 16:04:49;;;;;;;24.30;8.88;;;21.40;42.70;;;;;;5088804;28;20572;-44
2021/12/21 16:07:17;;;;;;;30.88;9.88;;;21.40;42.70;;;;;;5087938;28;20171;-40
2021/12/21 16:09:44;;;;;;;26.70;9.70;;;21.40;42.40;;;;;;5070939;28;20068;-45
2021/12/21 16:12:11;;;;;;;22.35;9.85;;;21.40;42.40;;;;;;5070577;28;20154;-41
2021/12/21 16:14:37;;;;;;;36.65;10.02;;;21.40;42.20;;;;;;5089234;28;20081;-39
2021/12/21 16:17:06;;;;;;;33.90;10.75;;;21.40;42.20;;;;;;5071144;28;20167;-40
2021/12/21 16:19:33;;;;;;;35.85;11.52;;;21.40;42.20;;;;;;5071085;28;20623;-39
2021/12/21 16:22:00;;;;;;;34.20;11.85;;;21.40;42.40;;;;;;5069978;28;20121;-40
2021/12/21 16:24:26;;;;;;;37.17;11.52;;;21.40;42.00;;;;;;5071939;28;20073;-46
2021/12/21 16:26:53;;;;;;;37.88;11.70;;;21.50;42.00;;;;;;5071614;28;20104;-39
2021/12/21 16:29:20;;;;;;;28.25;11.85;;;21.40;42.20;;;;;;5090266;28;20104;-39
2021/12/21 16:31:47;;;;;;;35.90;11.73;;;21.40;42.40;;;;;;5074563;28;20081;-40
2021/12/21 16:34:13;;;;;;;33.92;11.63;;;21.50;42.40;;;;;;5091390;28;20473;-45
2021/12/21 16:36:40;;;;;;;33.83;11.02;;;21.40;42.00;;;;;;5090612;28;20129;-43
2021/12/21 16:39:08;;;;;;;39.38;12.15;;;21.50;42.10;;;;;;5074801;28;20068;-38
2021/12/21 16:41:35;;;;;;;34.78;11.25;;;21.50;41.80;;;;;;5091231;28;20084;-40
2021/12/21 16:44:03;;;;;;;28.33;11.70;;;21.60;41.50;;;;;;5092735;28;20170;-46